Terminal Aerodrome Forecast
Issued by NWS

Home | Current Version | Previous Version | Text Only | Print | Product List | Glossary On
Versions: 1 2 3 4 5 6 7 8 9 10 11 12 13 14 15 16 17 18 19 20 21 22 23 24
000
FTUS41 KBGM 210300 AAB
TAFITH
TAF AMD
KITH 210346Z 2104/2124 14006KT P6SM -SHRA SCT035 OVC050
      TEMPO 2104/2108 5SM -SHRA BR OVC035
     FM210800 16004KT 5SM -SHRA OVC025
      TEMPO 2110/2114 3SM -SHRA BR OVC015
     FM211800 34003KT P6SM OVC035
      TEMPO 2118/2122 OVC025=

USA.gov is the U.S. government's official web portal to all federal, state and local government web resources and services.